Time;durP1;ratioP1;P1;durP2;ratioP2;P2;SDS_P1;SDS_P2;PMS_P1;PMS_P2;Temp;Humidity;BMP_temperature;BMP_pressure;BME280_temperature;BME280_humidity;BME280_pressure;Samples;Min_cycle;Max_cycle;Signal;HPM_P1;HPM_P2
2023/12/22 00:00:48;;;;;;;0.90;0.28;;;;;;;;;;2027298;29;20037;-62
2023/12/22 00:01:48;;;;;;;2.25;0.70;;;;;;;;;;2026508;29;20049;-56
2023/12/22 00:02:49;;;;;;;1.30;0.40;;;;;;;;;;2027263;29;20040;-59
2023/12/22 00:03:50;;;;;;;1.50;0.40;;;;;;;;;;2027286;29;20063;-59
2023/12/22 00:04:51;;;;;;;1.10;0.63;;;;;;;;;;2027227;29;20469;-58
2023/12/22 00:05:52;;;;;;;1.40;0.40;;;;;;;;;;2026898;29;20074;-58
2023/12/22 00:06:52;;;;;;;1.60;0.20;;;;;;;;;;2026511;29;20048;-58
2023/12/22 00:07:53;;;;;;;1.05;0.40;;;;;;;;;;2027101;29;20502;-60
2023/12/22 00:08:54;;;;;;;0.60;0.35;;;;;;;;;;2027087;29;20386;-61
2023/12/22 00:09:54;;;;;;;1.85;0.32;;;;;;;;;;2027084;29;20040;-61
2023/12/22 00:10:55;;;;;;;0.65;0.30;;;;;;;;;;2026834;29;20132;-61
2023/12/22 00:11:56;;;;;;;1.25;0.32;;;;;;;;;;2026841;29;20047;-62
2023/12/22 00:12:56;;;;;;;1.35;0.32;;;;;;;;;;2026820;29;20052;-65
2023/12/22 00:13:57;;;;;;;1.38;0.38;;;;;;;;;;2026869;29;20037;-63
2023/12/22 00:14:58;;;;;;;3.55;0.43;;;;;;;;;;2027215;29;20373;-62
2023/12/22 00:15:59;;;;;;;0.38;0.25;;;;;;;;;;2027047;29;20478;-63
2023/12/22 00:16:59;;;;;;;2.92;1.13;;;;;;;;;;2027071;29;20124;-62
2023/12/22 00:18:00;;;;;;;1.85;0.40;;;;;;;;;;2026324;29;20052;-63
2023/12/22 00:19:01;;;;;;;1.05;0.50;;;;;;;;;;2026898;29;20033;-61
2023/12/22 00:20:03;;;;;;;1.27;0.40;;;;;;;;;;2026614;29;20044;-62
2023/12/22 00:21:03;;;;;;;1.23;0.50;;;;;;;;;;2026542;29;20055;-62
2023/12/22 00:22:04;;;;;;;2.70;0.55;;;;;;;;;;2027169;29;20032;-62
2023/12/22 00:23:05;;;;;;;1.60;0.70;;;;;;;;;;2026908;29;20047;-62
2023/12/22 00:24:05;;;;;;;1.83;0.50;;;;;;;;;;2026387;29;20130;-64
2023/12/22 00:25:07;;;;;;;2.08;0.70;;;;;;;;;;2026924;29;20037;-62
2023/12/22 00:26:08;;;;;;;1.55;0.43;;;;;;;;;;2026613;29;20465;-62
2023/12/22 00:27:09;;;;;;;0.75;0.38;;;;;;;;;;2018092;29;20045;-61
2023/12/22 00:28:10;;;;;;;1.05;0.40;;;;;;;;;;2017817;29;20048;-62
2023/12/22 00:29:10;;;;;;;1.80;0.40;;;;;;;;;;2027064;29;20126;-61
2023/12/22 00:30:11;;;;;;;1.38;0.38;;;;;;;;;;2026948;29;20040;-61
2023/12/22 00:31:12;;;;;;;1.02;0.40;;;;;;;;;;2026831;29;20382;-61
2023/12/22 00:32:12;;;;;;;2.05;0.30;;;;;;;;;;2026287;29;20148;-62
2023/12/22 00:33:13;;;;;;;1.33;0.40;;;;;;;;;;2026286;29;20063;-61
2023/12/22 00:34:14;;;;;;;0.85;0.40;;;;;;;;;;2025894;29;20048;-61
2023/12/22 00:35:15;;;;;;;1.92;0.40;;;;;;;;;;2026706;29;20037;-61
2023/12/22 00:36:17;;;;;;;1.17;0.40;;;;;;;;;;2026658;29;20476;-62
2023/12/22 00:37:18;;;;;;;0.93;0.40;;;;;;;;;;2026789;29;20033;-62
2023/12/22 00:38:19;;;;;;;1.65;0.38;;;;;;;;;;2026756;29;20473;-61
2023/12/22 00:39:19;;;;;;;1.17;0.40;;;;;;;;;;2026456;29;20048;-63
2023/12/22 00:40:20;;;;;;;1.10;0.30;;;;;;;;;;2026063;29;20056;-63
2023/12/22 00:41:21;;;;;;;0.65;0.30;;;;;;;;;;2027137;29;20032;-63
2023/12/22 00:42:22;;;;;;;0.55;0.50;;;;;;;;;;2026666;29;20036;-62
2023/12/22 00:43:22;;;;;;;0.98;0.25;;;;;;;;;;2017906;29;20061;-61
2023/12/22 00:44:25;;;;;;;2.00;0.20;;;;;;;;;;2018566;29;20045;-62
2023/12/22 00:45:26;;;;;;;1.30;0.20;;;;;;;;;;2026864;29;20033;-62
2023/12/22 00:46:26;;;;;;;0.45;0.20;;;;;;;;;;2026656;29;20473;-61
2023/12/22 00:47:27;;;;;;;1.02;0.20;;;;;;;;;;2025887;29;20044;-61
2023/12/22 00:48:28;;;;;;;1.88;0.40;;;;;;;;;;2026531;29;20477;-61
2023/12/22 00:49:29;;;;;;;2.47;0.52;;;;;;;;;;2026910;29;20036;-61
2023/12/22 00:50:30;;;;;;;0.65;0.38;;;;;;;;;;2018398;29;20029;-60
2023/12/22 00:51:30;;;;;;;0.85;0.30;;;;;;;;;;2018433;29;20048;-61
2023/12/22 00:52:31;;;;;;;0.88;0.32;;;;;;;;;;2025820;29;20374;-61
2023/12/22 00:53:32;;;;;;;3.40;0.43;;;;;;;;;;2025877;29;20087;-61
2023/12/22 00:54:33;;;;;;;0.98;0.32;;;;;;;;;;2026044;29;20056;-61
2023/12/22 00:55:33;;;;;;;2.90;0.90;;;;;;;;;;2026636;29;20040;-60
2023/12/22 00:56:34;;;;;;;2.00;0.75;;;;;;;;;;2026171;29;20036;-60
2023/12/22 00:57:35;;;;;;;1.98;0.57;;;;;;;;;;2026200;29;20056;-60
2023/12/22 00:58:35;;;;;;;1.52;0.65;;;;;;;;;;2025806;29;20174;-60
2023/12/22 00:59:36;;;;;;;1.25;0.80;;;;;;;;;;2025930;29;20504;-59
2023/12/22 01:00:37;;;;;;;3.03;0.90;;;;;;;;;;2026653;29;20029;-58
2023/12/22 01:01:38;;;;;;;3.55;1.08;;;;;;;;;;2026536;29;20043;-58
2023/12/22 01:02:39;;;;;;;2.33;0.50;;;;;;;;;;2026484;29;20044;-57
2023/12/22 01:03:39;;;;;;;1.55;0.60;;;;;;;;;;2026621;29;20052;-58
2023/12/22 01:04:40;;;;;;;1.77;0.50;;;;;;;;;;2026784;29;20037;-59
2023/12/22 01:05:41;;;;;;;0.30;0.30;;;;;;;;;;2026430;29;20420;-57
2023/12/22 01:06:42;;;;;;;0.25;0.22;;;;;;;;;;2025663;29;20044;-56
2023/12/22 01:07:42;;;;;;;0.80;0.40;;;;;;;;;;2026657;29;20044;-57
2023/12/22 01:08:43;;;;;;;0.85;0.50;;;;;;;;;;2026477;29;20401;-57
2023/12/22 01:09:44;;;;;;;2.38;0.60;;;;;;;;;;2026685;29;20033;-58
2023/12/22 01:10:45;;;;;;;0.60;0.45;;;;;;;;;;2026630;29;20049;-57
2023/12/22 01:11:46;;;;;;;0.63;0.35;;;;;;;;;;2026707;29;20104;-57
2023/12/22 01:12:46;;;;;;;0.55;0.38;;;;;;;;;;2026519;29;20036;-56
2023/12/22 01:13:47;;;;;;;1.70;0.40;;;;;;;;;;2026496;29;20075;-57
2023/12/22 01:14:51;;;;;;;0.68;0.32;;;;;;;;;;2026573;29;20426;-56
2023/12/22 01:15:52;;;;;;;2.05;0.50;;;;;;;;;;2026573;29;20040;-57
2023/12/22 01:16:53;;;;;;;0.90;0.40;;;;;;;;;;2026962;29;20052;-56
2023/12/22 01:17:53;;;;;;;0.73;0.43;;;;;;;;;;2025763;29;20135;-56
2023/12/22 01:18:54;;;;;;;0.57;0.38;;;;;;;;;;2026313;29;20035;-57
2023/12/22 01:19:55;;;;;;;0.52;0.20;;;;;;;;;;2026382;29;20056;-56
2023/12/22 01:20:55;;;;;;;0.30;0.30;;;;;;;;;;2026314;29;20041;-55
2023/12/22 01:21:56;;;;;;;1.15;0.45;;;;;;;;;;2026236;29;20155;-55
2023/12/22 01:22:57;;;;;;;0.95;0.30;;;;;;;;;;2026326;29;20028;-57
2023/12/22 01:23:58;;;;;;;2.20;0.40;;;;;;;;;;2026470;29;20480;-56
2023/12/22 01:25:01;;;;;;;0.30;0.20;;;;;;;;;;2026422;29;20388;-55
2023/12/22 01:26:01;;;;;;;0.22;0.17;;;;;;;;;;2026464;29;20048;-55
2023/12/22 01:27:02;;;;;;;1.30;0.20;;;;;;;;;;2026725;29;20389;-55
2023/12/22 01:28:03;;;;;;;0.45;0.30;;;;;;;;;;2025403;29;20123;-55
2023/12/22 01:29:04;;;;;;;2.05;0.40;;;;;;;;;;2026416;29;20040;-55
2023/12/22 01:30:05;;;;;;;0.20;0.20;;;;;;;;;;2026579;29;20128;-55
2023/12/22 01:31:06;;;;;;;0.70;0.40;;;;;;;;;;2026494;29;20044;-56
2023/12/22 01:32:07;;;;;;;1.00;0.32;;;;;;;;;;2026215;29;20036;-55
2023/12/22 01:33:07;;;;;;;1.00;0.30;;;;;;;;;;2026509;29;20432;-56
2023/12/22 01:34:08;;;;;;;0.60;0.28;;;;;;;;;;2026221;29;20485;-56
2023/12/22 01:35:09;;;;;;;0.60;0.30;;;;;;;;;;2026612;29;20047;-56
2023/12/22 01:36:10;;;;;;;0.85;0.50;;;;;;;;;;2026527;29;20033;-55
2023/12/22 01:37:11;;;;;;;1.02;0.50;;;;;;;;;;2026276;29;20041;-56
2023/12/22 01:38:12;;;;;;;0.68;0.22;;;;;;;;;;2025425;29;20051;-56
2023/12/22 01:39:12;;;;;;;0.38;0.22;;;;;;;;;;2025707;29;20036;-56
2023/12/22 01:40:13;;;;;;;0.85;0.40;;;;;;;;;;2026191;29;20500;-56
2023/12/22 01:41:14;;;;;;;0.52;0.20;;;;;;;;;;2026240;29;20045;-55
2023/12/22 01:42:15;;;;;;;0.65;0.30;;;;;;;;;;2025548;29;20527;-55
2023/12/22 01:43:21;;;;;;;1.00;0.40;;;;;;;;;;2026523;29;20036;-55
2023/12/22 01:44:21;;;;;;;0.85;0.30;;;;;;;;;;2026481;29;20040;-56
2023/12/22 01:45:22;;;;;;;0.80;0.32;;;;;;;;;;2026663;29;20043;-56
2023/12/22 01:46:23;;;;;;;0.70;0.30;;;;;;;;;;2026268;29;20036;-55
2023/12/22 01:47:24;;;;;;;0.20;0.20;;;;;;;;;;2026215;29;20051;-56
2023/12/22 01:48:25;;;;;;;0.40;0.20;;;;;;;;;;2025444;29;20049;-55
2023/12/22 01:49:26;;;;;;;1.35;0.43;;;;;;;;;;2026076;29;20060;-56
2023/12/22 01:50:26;;;;;;;0.43;0.30;;;;;;;;;;2017926;29;20068;-56
2023/12/22 01:51:28;;;;;;;2.30;0.40;;;;;;;;;;2018213;29;20115;-56
2023/12/22 01:52:29;;;;;;;0.52;0.25;;;;;;;;;;2018256;29;20470;-55
2023/12/22 01:53:29;;;;;;;0.73;0.25;;;;;;;;;;2018181;29;20037;-55
2023/12/22 01:54:30;;;;;;;1.63;0.40;;;;;;;;;;2026576;29;20067;-55
2023/12/22 01:55:31;;;;;;;0.40;0.30;;;;;;;;;;2025895;29;20055;-55
2023/12/22 01:56:32;;;;;;;0.45;0.30;;;;;;;;;;2027181;29;20420;-55
2023/12/22 01:57:34;;;;;;;0.38;0.30;;;;;;;;;;2018486;29;20045;-55
2023/12/22 01:58:35;;;;;;;1.95;0.40;;;;;;;;;;2019462;29;20052;-57
2023/12/22 01:59:46;;;;;;;0.52;0.20;;;;;;;;;;2011813;29;20033;-58
2023/12/22 02:00:47;;;;;;;0.52;0.30;;;;;;;;;;2012934;29;20045;-57
2023/12/22 02:01:47;;;;;;;0.47;0.30;;;;;;;;;;2026707;29;20048;-56
2023/12/22 02:02:48;;;;;;;1.67;0.32;;;;;;;;;;2026538;29;20498;-58
2023/12/22 02:03:52;;;;;;;0.43;0.30;;;;;;;;;;2025439;29;20053;-59
2023/12/22 02:04:53;;;;;;;1.30;0.22;;;;;;;;;;2017574;29;20053;-59
2023/12/22 02:05:54;;;;;;;1.80;0.40;;;;;;;;;;2018939;29;20041;-53
2023/12/22 02:06:55;;;;;;;0.93;0.50;;;;;;;;;;2025635;29;20057;-53
2023/12/22 02:07:55;;;;;;;0.60;0.40;;;;;;;;;;2026484;29;20045;-53
2023/12/22 02:08:57;;;;;;;1.05;0.40;;;;;;;;;;2025653;29;20052;-53
2023/12/22 02:09:58;;;;;;;1.25;0.43;;;;;;;;;;2026191;29;20044;-53
2023/12/22 02:10:59;;;;;;;0.82;0.40;;;;;;;;;;2026291;29;20465;-53
2023/12/22 02:12:00;;;;;;;0.60;0.40;;;;;;;;;;2026568;29;20041;-53
2023/12/22 02:13:00;;;;;;;0.75;0.40;;;;;;;;;;2026287;29;20044;-53
2023/12/22 02:14:01;;;;;;;0.85;0.50;;;;;;;;;;2026531;29;20043;-53
2023/12/22 02:15:02;;;;;;;2.40;0.47;;;;;;;;;;2026468;29;20395;-53
2023/12/22 02:16:12;;;;;;;1.85;0.30;;;;;;;;;;2026181;29;20063;-53
2023/12/22 02:17:26;;;;;;;1.65;0.40;;;;;;;;;;2025384;29;20075;-53
2023/12/22 02:18:27;;;;;;;0.75;0.30;;;;;;;;;;2025719;29;20036;-52
2023/12/22 02:19:44;;;;;;;1.20;0.57;;;;;;;;;;2026200;29;20047;-53
2023/12/22 02:20:44;;;;;;;1.75;0.35;;;;;;;;;;2025256;29;20425;-53
2023/12/22 02:22:01;;;;;;;0.43;0.30;;;;;;;;;;2025495;29;20040;-53
2023/12/22 02:23:02;;;;;;;0.95;0.40;;;;;;;;;;2026060;29;20381;-52
2023/12/22 02:24:02;;;;;;;0.28;0.10;;;;;;;;;;2026159;29;20041;-53
2023/12/22 02:25:03;;;;;;;0.77;0.30;;;;;;;;;;2026228;29;20397;-52
2023/12/22 02:26:13;;;;;;;0.47;0.20;;;;;;;;;;2026088;29;20045;-53
2023/12/22 02:27:13;;;;;;;0.95;0.38;;;;;;;;;;2025789;29;20053;-53
2023/12/22 02:28:15;;;;;;;0.63;0.20;;;;;;;;;;2024628;29;20492;-52
2023/12/22 02:29:16;;;;;;;0.57;0.10;;;;;;;;;;2017988;29;20395;-52
2023/12/22 02:30:21;;;;;;;0.10;0.10;;;;;;;;;;2017468;29;20048;-54
2023/12/22 02:31:44;;;;;;;0.40;0.20;;;;;;;;;;2025076;29;20465;-53
2023/12/22 02:32:45;;;;;;;0.40;0.20;;;;;;;;;;2026162;29;20049;-52
2023/12/22 02:33:46;;;;;;;1.23;0.28;;;;;;;;;;2025491;29;20067;-52
2023/12/22 02:34:47;;;;;;;0.55;0.17;;;;;;;;;;2017834;29;20048;-52
2023/12/22 02:35:47;;;;;;;0.57;0.30;;;;;;;;;;2017424;29;20049;-53
2023/12/22 02:36:48;;;;;;;1.00;0.10;;;;;;;;;;2025836;29;20044;-53
2023/12/22 02:37:49;;;;;;;0.20;0.10;;;;;;;;;;2025112;29;20049;-53
2023/12/22 02:38:50;;;;;;;0.52;0.30;;;;;;;;;;2017905;29;20064;-53
2023/12/22 02:39:51;;;;;;;2.33;0.40;;;;;;;;;;2017701;29;20041;-53
2023/12/22 02:40:52;;;;;;;0.50;0.30;;;;;;;;;;2024852;29;20060;-53
2023/12/22 02:41:52;;;;;;;0.82;0.40;;;;;;;;;;2026166;29;20048;-53
2023/12/22 02:42:53;;;;;;;0.93;0.30;;;;;;;;;;2026272;29;20045;-53
2023/12/22 02:43:54;;;;;;;1.30;0.20;;;;;;;;;;2026149;29;20045;-53
2023/12/22 02:44:55;;;;;;;0.30;0.30;;;;;;;;;;2026548;29;20465;-53
2023/12/22 02:45:56;;;;;;;0.45;0.40;;;;;;;;;;2025974;29;20045;-53
2023/12/22 02:46:57;;;;;;;0.75;0.28;;;;;;;;;;2025638;29;20044;-53
2023/12/22 02:47:58;;;;;;;0.35;0.20;;;;;;;;;;2026068;29;20503;-54
2023/12/22 02:48:58;;;;;;;0.77;0.30;;;;;;;;;;2025901;29;20032;-53
2023/12/22 02:49:59;;;;;;;0.10;0.10;;;;;;;;;;2026216;29;20045;-53
2023/12/22 02:51:00;;;;;;;0.70;0.28;;;;;;;;;;2025474;29;20057;-53
2023/12/22 02:52:00;;;;;;;0.32;0.15;;;;;;;;;;2025383;29;20416;-53
2023/12/22 02:53:01;;;;;;;0.63;0.20;;;;;;;;;;2025398;29;20461;-53
2023/12/22 02:54:02;;;;;;;0.65;0.43;;;;;;;;;;2025710;29;20135;-53
2023/12/22 02:55:03;;;;;;;0.25;0.10;;;;;;;;;;2026359;29;20047;-53
2023/12/22 02:56:04;;;;;;;2.05;0.30;;;;;;;;;;2025996;29;20033;-53
2023/12/22 02:57:05;;;;;;;0.50;0.20;;;;;;;;;;2026319;29;20051;-53
2023/12/22 02:58:06;;;;;;;1.50;0.40;;;;;;;;;;2026263;29;20037;-53
2023/12/22 02:59:07;;;;;;;0.77;0.20;;;;;;;;;;2025556;29;20041;-53
2023/12/22 03:00:08;;;;;;;0.98;0.43;;;;;;;;;;2025615;29;20052;-53
2023/12/22 03:01:08;;;;;;;0.77;0.30;;;;;;;;;;2026223;29;20041;-53
2023/12/22 03:02:09;;;;;;;0.82;0.30;;;;;;;;;;2025703;29;20057;-53
2023/12/22 03:03:10;;;;;;;1.85;0.43;;;;;;;;;;2025647;29;20051;-53
2023/12/22 03:04:11;;;;;;;0.50;0.30;;;;;;;;;;2025269;29;20477;-53
2023/12/22 03:05:11;;;;;;;0.70;0.25;;;;;;;;;;2025921;29;20068;-53
2023/12/22 03:06:12;;;;;;;0.40;0.10;;;;;;;;;;2025887;29;20032;-53
2023/12/22 03:07:13;;;;;;;1.40;0.17;;;;;;;;;;2026179;29;20083;-53
2023/12/22 03:08:14;;;;;;;1.13;0.20;;;;;;;;;;2026403;29;20147;-53
2023/12/22 03:09:14;;;;;;;0.40;0.28;;;;;;;;;;2025837;29;20136;-53
2023/12/22 03:10:15;;;;;;;0.55;0.10;;;;;;;;;;2025534;29;20073;-53
2023/12/22 03:11:16;;;;;;;0.43;0.30;;;;;;;;;;2025392;29;20051;-52
2023/12/22 03:12:16;;;;;;;1.27;0.13;;;;;;;;;;2025858;29;20397;-52
2023/12/22 03:13:17;;;;;;;0.30;0.28;;;;;;;;;;2025303;29;20480;-52
2023/12/22 03:14:18;;;;;;;0.20;0.20;;;;;;;;;;2026017;29;20056;-52
2023/12/22 03:15:19;;;;;;;0.32;0.20;;;;;;;;;;2026281;29;20032;-53
2023/12/22 03:16:19;;;;;;;0.82;0.30;;;;;;;;;;2026464;29;20469;-52
2023/12/22 03:17:20;;;;;;;1.20;0.20;;;;;;;;;;2027728;29;20029;-52
2023/12/22 03:18:21;;;;;;;1.65;0.20;;;;;;;;;;2018383;29;20056;-52
2023/12/22 03:19:22;;;;;;;1.10;0.17;;;;;;;;;;2018961;29;20041;-52
2023/12/22 03:20:23;;;;;;;0.57;0.20;;;;;;;;;;2027445;29;20036;-52
2023/12/22 03:21:24;;;;;;;0.57;0.20;;;;;;;;;;2028091;29;20470;-61
2023/12/22 03:22:24;;;;;;;0.20;0.20;;;;;;;;;;2028977;29;20063;-55
2023/12/22 03:23:25;;;;;;;1.98;0.60;;;;;;;;;;2028739;29;20461;-54
2023/12/22 03:24:26;;;;;;;3.13;0.50;;;;;;;;;;2029048;29;20032;-58
2023/12/22 03:25:27;;;;;;;2.92;0.70;;;;;;;;;;2028147;29;20608;-52
2023/12/22 03:26:28;;;;;;;3.28;0.60;;;;;;;;;;2029023;29;20028;-53
2023/12/22 03:27:29;;;;;;;1.55;0.52;;;;;;;;;;2029594;29;20048;-61
2023/12/22 03:28:29;;;;;;;4.15;0.95;;;;;;;;;;2028283;29;20036;-57
2023/12/22 03:29:30;;;;;;;1.92;0.68;;;;;;;;;;2028351;29;20032;-56
2023/12/22 03:30:31;;;;;;;7.80;0.75;;;;;;;;;;2029605;29;20044;-51
2023/12/22 03:31:32;;;;;;;2.00;0.80;;;;;;;;;;2028939;29;20451;-54
2023/12/22 03:32:32;;;;;;;4.03;0.90;;;;;;;;;;2028292;29;20043;-57
2023/12/22 03:33:33;;;;;;;5.10;0.70;;;;;;;;;;2028877;29;20049;-51
2023/12/22 03:34:34;;;;;;;3.88;0.65;;;;;;;;;;2028906;29;20393;-52
2023/12/22 03:35:34;;;;;;;3.78;0.90;;;;;;;;;;2028597;29;20158;-53
2023/12/22 03:36:35;;;;;;;2.70;0.75;;;;;;;;;;2028651;29;20040;-52
2023/12/22 03:37:36;;;;;;;2.40;0.60;;;;;;;;;;2029074;29;20060;-52
2023/12/22 03:38:37;;;;;;;4.80;0.68;;;;;;;;;;2028494;29;20033;-52
2023/12/22 03:39:37;;;;;;;3.20;1.27;;;;;;;;;;2028564;29;20071;-50
2023/12/22 03:40:38;;;;;;;4.25;1.02;;;;;;;;;;2027908;29;20148;-51
2023/12/22 03:41:39;;;;;;;3.50;0.73;;;;;;;;;;2028062;29;20063;-51
2023/12/22 03:42:40;;;;;;;2.83;1.02;;;;;;;;;;2028537;29;20485;-51
2023/12/22 03:43:40;;;;;;;6.13;1.33;;;;;;;;;;2027599;29;20421;-51
2023/12/22 03:44:41;;;;;;;3.97;1.35;;;;;;;;;;2028748;29;20041;-50
2023/12/22 03:45:42;;;;;;;3.20;0.60;;;;;;;;;;2028372;29;20045;-50
2023/12/22 03:46:43;;;;;;;2.10;0.70;;;;;;;;;;2028107;29;20052;-51
2023/12/22 03:47:43;;;;;;;2.17;0.80;;;;;;;;;;2027491;29;20041;-50
2023/12/22 03:48:44;;;;;;;4.00;0.90;;;;;;;;;;2028659;29;20040;-50
2023/12/22 03:49:45;;;;;;;3.97;0.60;;;;;;;;;;2027835;29;20101;-50
2023/12/22 03:50:45;;;;;;;5.63;0.88;;;;;;;;;;2027942;29;20056;-52
2023/12/22 03:51:46;;;;;;;1.55;0.50;;;;;;;;;;2028130;29;20049;-50
2023/12/22 03:52:47;;;;;;;2.33;0.60;;;;;;;;;;2028739;29;20047;-51
2023/12/22 03:53:48;;;;;;;2.47;0.77;;;;;;;;;;2028480;29;20401;-52
2023/12/22 03:54:48;;;;;;;2.85;0.60;;;;;;;;;;2028014;29;20056;-50
2023/12/22 03:55:49;;;;;;;2.58;0.63;;;;;;;;;;2028209;29;20036;-51
2023/12/22 03:56:50;;;;;;;6.10;0.75;;;;;;;;;;2020028;29;20073;-52
2023/12/22 03:57:50;;;;;;;3.95;0.82;;;;;;;;;;2019241;29;20048;-53
2023/12/22 03:58:51;;;;;;;2.10;0.45;;;;;;;;;;2027234;29;20377;-51
2023/12/22 03:59:52;;;;;;;6.35;0.82;;;;;;;;;;2027266;29;20036;-52
2023/12/22 04:00:53;;;;;;;3.22;0.70;;;;;;;;;;2026529;29;20049;-52
2023/12/22 04:01:55;;;;;;;2.45;0.60;;;;;;;;;;2027208;29;20061;-53
2023/12/22 04:02:55;;;;;;;5.55;0.90;;;;;;;;;;2018592;29;20045;-52
2023/12/22 04:03:56;;;;;;;3.58;0.90;;;;;;;;;;2019151;29;20044;-52
2023/12/22 04:04:57;;;;;;;1.98;0.57;;;;;;;;;;2027362;29;20479;-58
2023/12/22 04:05:57;;;;;;;2.95;0.63;;;;;;;;;;2026918;29;20044;-52
2023/12/22 04:06:58;;;;;;;5.38;0.68;;;;;;;;;;2027268;29;20061;-52
2023/12/22 04:07:59;;;;;;;2.00;0.50;;;;;;;;;;2026815;29;20033;-52
2023/12/22 04:09:00;;;;;;;2.05;0.60;;;;;;;;;;2027019;29;20051;-51
2023/12/22 04:10:00;;;;;;;1.65;0.45;;;;;;;;;;2027078;29;20037;-52
2023/12/22 04:11:01;;;;;;;2.60;0.55;;;;;;;;;;2027176;29;20048;-52
2023/12/22 04:12:02;;;;;;;2.22;0.52;;;;;;;;;;2027010;29;20456;-52
2023/12/22 04:13:03;;;;;;;2.55;0.65;;;;;;;;;;2027483;29;20366;-51
2023/12/22 04:14:03;;;;;;;1.10;0.32;;;;;;;;;;2026983;29;20032;-52
2023/12/22 04:15:04;;;;;;;9.43;1.30;;;;;;;;;;2018617;29;20060;-52
2023/12/22 04:16:05;;;;;;;2.90;0.68;;;;;;;;;;2018472;29;20049;-55
2023/12/22 04:17:06;;;;;;;3.35;0.52;;;;;;;;;;2027350;29;20077;-52
2023/12/22 04:18:07;;;;;;;3.33;0.60;;;;;;;;;;2027675;29;20048;-50
2023/12/22 04:19:07;;;;;;;3.63;0.88;;;;;;;;;;2027843;29;20035;-52
2023/12/22 04:20:08;;;;;;;1.30;0.35;;;;;;;;;;2027188;29;20060;-55
2023/12/22 04:21:09;;;;;;;2.92;0.80;;;;;;;;;;2026939;29;20053;-52
2023/12/22 04:22:10;;;;;;;4.47;1.02;;;;;;;;;;2027396;29;20037;-52
2023/12/22 04:23:10;;;;;;;1.38;0.30;;;;;;;;;;2026167;29;20060;-51
2023/12/22 04:24:11;;;;;;;3.97;0.93;;;;;;;;;;2026783;29;20040;-52
2023/12/22 04:25:12;;;;;;;0.73;0.20;;;;;;;;;;2026472;29;20472;-52
2023/12/22 04:26:12;;;;;;;1.80;0.82;;;;;;;;;;2026843;29;20442;-52
2023/12/22 04:27:13;;;;;;;1.10;0.60;;;;;;;;;;2027019;29;20044;-52
2023/12/22 04:28:14;;;;;;;2.35;0.65;;;;;;;;;;2025788;29;20453;-52
2023/12/22 04:29:15;;;;;;;1.75;0.55;;;;;;;;;;2027179;29;20496;-52
2023/12/22 04:30:16;;;;;;;3.95;0.70;;;;;;;;;;2027046;29;20037;-51
2023/12/22 04:31:16;;;;;;;2.80;0.50;;;;;;;;;;2026985;29;20385;-52
2023/12/22 04:32:17;;;;;;;2.65;0.63;;;;;;;;;;2026839;29;20033;-52
2023/12/22 04:33:18;;;;;;;3.83;0.60;;;;;;;;;;2026808;29;20068;-52
2023/12/22 04:34:19;;;;;;;2.92;0.70;;;;;;;;;;2026049;29;20056;-52
2023/12/22 04:35:19;;;;;;;2.15;0.55;;;;;;;;;;2026219;29;20036;-51
2023/12/22 04:36:20;;;;;;;5.30;0.88;;;;;;;;;;2026426;29;20083;-52
2023/12/22 04:37:21;;;;;;;3.78;0.70;;;;;;;;;;2018301;29;20041;-52
2023/12/22 04:38:21;;;;;;;1.75;0.43;;;;;;;;;;2018270;29;20044;-51
2023/12/22 04:39:22;;;;;;;4.03;0.60;;;;;;;;;;2026867;29;20358;-51
2023/12/22 04:40:23;;;;;;;2.67;0.70;;;;;;;;;;2026847;29;20067;-52
2023/12/22 04:41:24;;;;;;;1.55;0.65;;;;;;;;;;2026208;29;20055;-51
2023/12/22 04:42:25;;;;;;;4.55;0.52;;;;;;;;;;2026711;29;20032;-51
2023/12/22 04:43:26;;;;;;;2.90;0.70;;;;;;;;;;2026288;29;20055;-52
2023/12/22 04:44:26;;;;;;;2.72;0.52;;;;;;;;;;2026957;29;20036;-52
2023/12/22 04:45:27;;;;;;;2.72;0.52;;;;;;;;;;2026074;29;20473;-53
2023/12/22 04:46:28;;;;;;;1.60;0.70;;;;;;;;;;2026406;29;20048;-51
2023/12/22 04:47:29;;;;;;;5.88;0.75;;;;;;;;;;2017986;29;20037;-52
2023/12/22 04:48:30;;;;;;;2.05;0.55;;;;;;;;;;2018543;29;20058;-52
2023/12/22 04:49:30;;;;;;;3.00;0.70;;;;;;;;;;2026617;29;20087;-52
2023/12/22 04:50:31;;;;;;;3.03;0.50;;;;;;;;;;2026882;29;20047;-52
2023/12/22 04:51:32;;;;;;;1.05;0.57;;;;;;;;;;2026231;29;20505;-52
2023/12/22 04:52:33;;;;;;;3.70;0.88;;;;;;;;;;2026092;29;20025;-52
2023/12/22 04:53:33;;;;;;;2.20;0.40;;;;;;;;;;2026648;29;20044;-52
2023/12/22 04:54:34;;;;;;;2.85;0.80;;;;;;;;;;2026519;29;20197;-53
2023/12/22 04:55:35;;;;;;;3.03;0.52;;;;;;;;;;2026795;29;20048;-52
2023/12/22 04:56:35;;;;;;;2.15;0.60;;;;;;;;;;2025857;29;20052;-53
2023/12/22 04:57:36;;;;;;;4.65;0.50;;;;;;;;;;2026069;29;20044;-52
2023/12/22 04:58:37;;;;;;;4.93;0.95;;;;;;;;;;2026713;29;20037;-52
2023/12/22 04:59:38;;;;;;;3.30;0.50;;;;;;;;;;2026150;29;20092;-53
2023/12/22 05:00:38;;;;;;;2.53;0.65;;;;;;;;;;2025791;29;20405;-53
2023/12/22 05:01:39;;;;;;;2.92;1.30;;;;;;;;;;2026600;29;20040;-53
2023/12/22 05:02:41;;;;;;;3.72;1.10;;;;;;;;;;2025955;29;20056;-51
2023/12/22 05:03:42;;;;;;;1.98;0.55;;;;;;;;;;2026762;29;20048;-52
2023/12/22 05:04:42;;;;;;;3.10;0.70;;;;;;;;;;2026441;29;20037;-53
2023/12/22 05:05:43;;;;;;;4.05;1.20;;;;;;;;;;2025895;29;20048;-52
2023/12/22 05:06:45;;;;;;;2.20;0.65;;;;;;;;;;2026576;29;20063;-52
2023/12/22 05:07:45;;;;;;;3.80;0.75;;;;;;;;;;2026864;29;20385;-52
2023/12/22 05:08:46;;;;;;;5.22;0.60;;;;;;;;;;2025655;29;20059;-52
2023/12/22 05:09:47;;;;;;;2.53;0.55;;;;;;;;;;2026668;29;20036;-52
2023/12/22 05:10:48;;;;;;;2.38;0.80;;;;;;;;;;2026702;29;20040;-52
2023/12/22 05:11:48;;;;;;;5.07;0.75;;;;;;;;;;2025820;29;20072;-51
2023/12/22 05:12:49;;;;;;;2.47;0.50;;;;;;;;;;2026586;29;20037;-52
2023/12/22 05:13:50;;;;;;;1.73;0.50;;;;;;;;;;2026139;29;20465;-52
2023/12/22 05:14:50;;;;;;;4.93;0.70;;;;;;;;;;2025778;29;20057;-52
2023/12/22 05:15:51;;;;;;;3.15;0.73;;;;;;;;;;2025863;29;20060;-52
2023/12/22 05:16:55;;;;;;;3.60;1.30;;;;;;;;;;2026699;29;20037;-52
2023/12/22 05:17:55;;;;;;;2.45;0.88;;;;;;;;;;2025805;29;20055;-52
2023/12/22 05:18:59;;;;;;;4.45;0.77;;;;;;;;;;2025896;29;20393;-53
2023/12/22 05:19:59;;;;;;;2.67;0.82;;;;;;;;;;2026478;29;20071;-53
2023/12/22 05:21:00;;;;;;;3.22;0.57;;;;;;;;;;2026498;29;20040;-52
2023/12/22 05:22:01;;;;;;;3.83;0.60;;;;;;;;;;2026612;29;20047;-53
2023/12/22 05:23:02;;;;;;;5.93;1.08;;;;;;;;;;2026537;29;20037;-52
2023/12/22 05:24:03;;;;;;;2.42;0.63;;;;;;;;;;2017710;29;20092;-53
2023/12/22 05:25:04;;;;;;;2.42;0.60;;;;;;;;;;2018211;29;20037;-53
2023/12/22 05:26:05;;;;;;;3.33;0.70;;;;;;;;;;2026472;29;20052;-53
2023/12/22 05:27:06;;;;;;;4.80;0.85;;;;;;;;;;2026525;29;20544;-52
2023/12/22 05:28:06;;;;;;;3.42;0.85;;;;;;;;;;2025511;29;20532;-53
2023/12/22 05:29:08;;;;;;;6.85;0.80;;;;;;;;;;2026402;29;20469;-52
2023/12/22 05:30:09;;;;;;;2.65;0.45;;;;;;;;;;2025873;29;20405;-53
2023/12/22 05:31:09;;;;;;;2.95;0.50;;;;;;;;;;2026424;29;20036;-53
2023/12/22 05:32:10;;;;;;;1.92;0.45;;;;;;;;;;2026270;29;20043;-53
2023/12/22 05:33:11;;;;;;;2.08;0.65;;;;;;;;;;2026212;29;20037;-54
2023/12/22 05:34:12;;;;;;;0.50;0.25;;;;;;;;;;2026423;29;20461;-53
2023/12/22 05:35:13;;;;;;;0.85;0.35;;;;;;;;;;2026497;29;20041;-54
2023/12/22 05:36:13;;;;;;;4.05;0.88;;;;;;;;;;2025793;29;20211;-54
2023/12/22 05:37:15;;;;;;;3.42;0.65;;;;;;;;;;2026735;29;20051;-54
2023/12/22 05:38:16;;;;;;;3.10;0.60;;;;;;;;;;2025757;29;20049;-54
2023/12/22 05:39:17;;;;;;;0.82;0.20;;;;;;;;;;2025986;29;20036;-54
2023/12/22 05:40:17;;;;;;;2.15;0.50;;;;;;;;;;2025968;29;20068;-53
2023/12/22 05:41:18;;;;;;;1.85;0.50;;;;;;;;;;2026178;29;20044;-54
2023/12/22 05:42:19;;;;;;;1.65;0.55;;;;;;;;;;2018135;29;20052;-55
2023/12/22 05:43:20;;;;;;;3.47;0.60;;;;;;;;;;2018116;29;20056;-54
2023/12/22 05:44:22;;;;;;;1.10;0.30;;;;;;;;;;2026264;29;20461;-54
2023/12/22 05:45:24;;;;;;;1.40;0.32;;;;;;;;;;2026250;29;20481;-54
2023/12/22 05:46:25;;;;;;;0.40;0.20;;;;;;;;;;2026325;29;20492;-52
2023/12/22 05:47:26;;;;;;;2.80;0.80;;;;;;;;;;2026119;29;20043;-53
2023/12/22 05:48:27;;;;;;;2.60;0.40;;;;;;;;;;2026509;29;20037;-53
2023/12/22 05:49:28;;;;;;;2.15;0.32;;;;;;;;;;2026350;29;20041;-53
2023/12/22 05:50:29;;;;;;;1.75;0.47;;;;;;;;;;2026529;29;20474;-53
2023/12/22 05:51:30;;;;;;;1.35;0.40;;;;;;;;;;2025552;29;20048;-53
2023/12/22 05:52:31;;;;;;;3.30;0.47;;;;;;;;;;2025703;29;20043;-53
2023/12/22 05:53:31;;;;;;;2.63;0.75;;;;;;;;;;2025080;29;20055;-53
2023/12/22 05:54:32;;;;;;;2.33;0.60;;;;;;;;;;2026406;29;20085;-53
2023/12/22 05:55:33;;;;;;;2.45;0.50;;;;;;;;;;2026399;29;20430;-53
2023/12/22 05:56:34;;;;;;;2.38;0.90;;;;;;;;;;2026574;29;20036;-52
2023/12/22 05:57:35;;;;;;;4.47;0.80;;;;;;;;;;2026278;29;20040;-53
2023/12/22 05:58:35;;;;;;;2.45;0.70;;;;;;;;;;2025714;29;20070;-53
2023/12/22 05:59:36;;;;;;;3.47;0.60;;;;;;;;;;2025927;29;20055;-52
2023/12/22 06:00:37;;;;;;;3.15;0.90;;;;;;;;;;2026111;29;20552;-52
2023/12/22 06:01:38;;;;;;;1.05;0.32;;;;;;;;;;2026352;29;20437;-53
2023/12/22 06:02:38;;;;;;;5.15;1.05;;;;;;;;;;2026011;29;20477;-53
2023/12/22 06:03:40;;;;;;;2.55;0.68;;;;;;;;;;2026222;29;20047;-52
2023/12/22 06:04:40;;;;;;;3.92;0.90;;;;;;;;;;2026258;29;20033;-52
2023/12/22 06:05:41;;;;;;;1.15;0.47;;;;;;;;;;2026158;29;20041;-52
2023/12/22 06:06:42;;;;;;;4.53;1.15;;;;;;;;;;2025978;29;20044;-52